Time;durP1;ratioP1;P1;durP2;ratioP2;P2;SDS_P1;SDS_P2;PMS_P1;PMS_P2;Temp;Humidity;BMP_temperature;BMP_pressure;BME280_temperature;BME280_humidity;BME280_pressure;Samples;Min_cycle;Max_cycle;Signal;HPM_P1;HPM_P2
2023/10/08 00:01:40;;;;;;;9.23;4.13;;;16.10;99.90;;;;;;5012023;28;20432;-73
2023/10/08 00:04:07;;;;;;;5.47;3.60;;;16.10;99.90;;;;;;5012235;28;20474;-73
2023/10/08 00:06:33;;;;;;;5.67;3.90;;;16.10;99.90;;;;;;5012037;28;20508;-73
2023/10/08 00:09:08;;;;;;;8.90;3.80;;;16.10;99.90;;;;;;5011483;28;20402;-73
2023/10/08 00:11:39;;;;;;;7.07;4.17;;;16.10;99.90;;;;;;5011938;28;20245;-73
2023/10/08 00:14:21;;;;;;;5.27;3.50;;;16.20;99.90;;;;;;5012265;28;20399;-73
2023/10/08 00:16:49;;;;;;;5.20;3.93;;;16.20;99.90;;;;;;5011952;28;20917;-73
2023/10/08 00:19:17;;;;;;;6.20;3.57;;;16.30;99.90;;;;;;5012094;28;20510;-73
2023/10/08 00:21:45;;;;;;;6.10;4.10;;;16.40;99.90;;;;;;5015359;28;20622;-73
2023/10/08 00:24:12;;;;;;;5.77;3.80;;;16.30;99.90;;;;;;5015578;28;20435;-73
2023/10/08 00:26:40;;;;;;;4.63;3.80;;;16.40;99.90;;;;;;5015183;28;20457;-74
2023/10/08 00:29:15;;;;;;;5.27;3.43;;;16.30;99.90;;;;;;5015142;28;20407;-72
2023/10/08 00:31:41;;;;;;;4.60;3.70;;;16.40;99.90;;;;;;5014099;28;20399;-74
2023/10/08 00:34:13;;;;;;;6.90;3.97;;;16.40;99.90;;;;;;5015366;28;20399;-73
2023/10/08 00:36:44;;;;;;;4.60;3.43;;;16.50;99.90;;;;;;5015437;28;20423;-73
2023/10/08 00:39:13;;;;;;;3.40;2.90;;;16.40;99.90;;;;;;5015181;28;20461;-73
2023/10/08 00:41:43;;;;;;;5.07;3.43;;;16.40;99.90;;;;;;5015499;28;20418;-72
2023/10/08 00:44:13;;;;;;;5.20;2.93;;;16.30;99.90;;;;;;5015070;28;20417;-72
2023/10/08 00:46:47;;;;;;;7.30;4.17;;;16.40;99.90;;;;;;5018750;28;20458;-72
2023/10/08 00:49:24;;;;;;;5.43;3.43;;;16.50;99.90;;;;;;5019131;28;20372;-73
2023/10/08 00:52:26;;;;;;;4.10;3.30;;;16.50;99.90;;;;;;5015311;28;20487;-72
2023/10/08 00:54:55;;;;;;;4.83;3.40;;;16.50;99.90;;;;;;5014588;28;20409;-73
2023/10/08 00:57:29;;;;;;;4.00;3.60;;;16.50;99.90;;;;;;5013458;28;20469;-73
2023/10/08 00:59:59;;;;;;;4.83;3.50;;;16.50;99.90;;;;;;5014475;28;20915;-73
2023/10/08 01:02:49;;;;;;;5.30;3.73;;;16.50;99.90;;;;;;5014499;28;20841;-72
2023/10/08 01:05:19;;;;;;;5.80;4.10;;;16.50;99.90;;;;;;5013066;28;20422;-74
2023/10/08 01:07:47;;;;;;;4.23;3.40;;;16.50;99.90;;;;;;5013653;28;20932;-73
2023/10/08 01:10:19;;;;;;;7.50;4.30;;;16.50;99.90;;;;;;5014890;28;20442;-72
2023/10/08 01:12:55;;;;;;;4.80;3.17;;;16.50;99.90;;;;;;5014861;28;20850;-73
2023/10/08 01:15:28;;;;;;;6.20;3.97;;;16.50;99.90;;;;;;5014693;28;20811;-73
2023/10/08 01:18:06;;;;;;;4.60;3.30;;;16.40;99.90;;;;;;5014485;28;20825;-73
2023/10/08 01:20:36;;;;;;;5.43;3.67;;;16.30;99.90;;;;;;5014616;28;20425;-73
2023/10/08 01:23:04;;;;;;;5.23;3.47;;;16.40;99.90;;;;;;5012967;28;20437;-73
2023/10/08 01:25:30;;;;;;;8.17;4.10;;;16.40;99.90;;;;;;5012840;28;20421;-72
2023/10/08 01:28:08;;;;;;;6.53;3.73;;;16.30;99.90;;;;;;5014669;28;20541;-72
2023/10/08 01:30:40;;;;;;;5.37;3.70;;;16.30;99.90;;;;;;5013973;28;20391;-73
2023/10/08 01:33:10;;;;;;;6.63;3.90;;;16.10;99.90;;;;;;5014171;28;20396;-72
2023/10/08 01:35:36;;;;;;;6.40;4.27;;;16.10;99.90;;;;;;5014119;28;20389;-72
2023/10/08 01:38:03;;;;;;;5.53;3.50;;;16.10;99.90;;;;;;5014254;28;20406;-72
2023/10/08 01:40:30;;;;;;;5.90;3.87;;;15.90;99.90;;;;;;5014347;28;20170;-72
2023/10/08 01:43:04;;;;;;;11.30;4.03;;;15.90;99.90;;;;;;5014387;28;20443;-72
2023/10/08 01:45:30;;;;;;;7.43;4.67;;;16.00;99.90;;;;;;5014156;28;20526;-73
2023/10/08 01:47:56;;;;;;;5.00;3.83;;;15.90;99.90;;;;;;5013579;28;20471;-73
2023/10/08 01:50:22;;;;;;;8.00;4.40;;;16.00;99.90;;;;;;5013571;28;20793;-73
2023/10/08 01:52:51;;;;;;;5.83;3.67;;;15.90;99.90;;;;;;5013041;28;20416;-73
2023/10/08 01:55:18;;;;;;;6.50;4.33;;;15.90;99.90;;;;;;5013503;28;20161;-73
2023/10/08 01:57:47;;;;;;;4.73;3.40;;;15.90;99.90;;;;;;5013229;28;20932;-73
2023/10/08 02:00:22;;;;;;;6.73;3.83;;;15.90;99.90;;;;;;5012276;28;20846;-73
2023/10/08 02:02:51;;;;;;;5.97;3.90;;;16.00;99.90;;;;;;5013649;28;20410;-73
2023/10/08 02:05:18;;;;;;;6.23;4.10;;;16.00;99.90;;;;;;5013279;28;20754;-73
2023/10/08 02:07:44;;;;;;;7.67;4.27;;;16.00;99.90;;;;;;5013612;28;20469;-73
2023/10/08 02:10:10;;;;;;;8.33;4.30;;;15.90;99.90;;;;;;5014196;28;20420;-73
2023/10/08 02:12:42;;;;;;;7.37;4.10;;;15.80;99.90;;;;;;5013383;28;20456;-73
2023/10/08 02:15:11;;;;;;;6.73;4.00;;;15.80;99.90;;;;;;5012115;28;20409;-73
2023/10/08 02:17:38;;;;;;;4.70;3.73;;;15.80;99.90;;;;;;5013102;28;20436;-72
2023/10/08 02:20:05;;;;;;;4.20;3.53;;;15.80;99.90;;;;;;5013130;28;20765;-73
2023/10/08 02:22:32;;;;;;;4.40;3.20;;;15.60;99.90;;;;;;5013398;28;20400;-73
2023/10/08 02:25:01;;;;;;;8.30;4.30;;;15.60;99.90;;;;;;5013173;28;20406;-73
2023/10/08 02:27:32;;;;;;;5.87;3.73;;;15.50;99.90;;;;;;5013031;28;20531;-73
2023/10/08 02:29:58;;;;;;;5.17;3.50;;;15.40;99.90;;;;;;5013480;28;20385;-73
2023/10/08 02:32:23;;;;;;;5.83;4.20;;;15.20;99.90;;;;;;5013016;28;20792;-73
2023/10/08 02:34:50;;;;;;;5.60;3.30;;;15.20;99.90;;;;;;5013370;28;20569;-73
2023/10/08 02:37:16;;;;;;;6.93;4.20;;;15.10;99.90;;;;;;5013160;28;20601;-73
2023/10/08 02:39:42;;;;;;;6.20;3.90;;;15.10;99.90;;;;;;5011892;28;20574;-72
2023/10/08 02:42:10;;;;;;;6.60;3.63;;;15.20;99.90;;;;;;5011299;28;20412;-73
2023/10/08 02:44:41;;;;;;;5.80;3.50;;;15.00;99.90;;;;;;5012882;28;20493;-73
2023/10/08 02:47:08;;;;;;;9.23;4.30;;;14.90;99.90;;;;;;5012726;28;20459;-73
2023/10/08 02:49:34;;;;;;;6.30;4.10;;;14.90;99.90;;;;;;5012900;28;20784;-73
2023/10/08 02:52:04;;;;;;;5.83;3.30;;;14.90;99.90;;;;;;5013232;28;20892;-73
2023/10/08 02:54:36;;;;;;;6.07;3.47;;;14.90;99.90;;;;;;5012897;28;20414;-73
2023/10/08 02:57:04;;;;;;;5.93;3.77;;;14.90;99.90;;;;;;5026313;23;20498;-74
2023/10/08 02:59:40;;;;;;;5.07;3.80;;;14.80;99.90;;;;;;4993997;28;20905;-74
2023/10/08 03:02:13;;;;;;;5.07;3.63;;;14.70;99.90;;;;;;5011815;28;20479;-74
2023/10/08 03:04:45;;;;;;;5.20;3.23;;;14.70;99.90;;;;;;5013554;28;20380;-74
2023/10/08 03:07:32;;;;;;;6.20;3.23;;;14.80;99.90;;;;;;5013367;28;20441;-74
2023/10/08 03:10:18;;;;;;;7.10;4.07;;;14.70;99.90;;;;;;5011603;28;20724;-74
2023/10/08 03:12:47;;;;;;;4.33;3.03;;;14.50;99.90;;;;;;4994000;28;20402;-74
2023/10/08 03:15:28;;;;;;;7.10;4.53;;;14.60;99.90;;;;;;4992338;28;20409;-74
2023/10/08 03:17:57;;;;;;;5.80;3.77;;;14.60;99.90;;;;;;4993907;28;20434;-74
2023/10/08 03:20:38;;;;;;;7.97;4.07;;;14.50;99.90;;;;;;4997422;28;20414;-73
2023/10/08 03:23:23;;;;;;;5.80;3.90;;;14.60;99.90;;;;;;5013162;28;20416;-73
2023/10/08 03:26:00;;;;;;;5.53;3.97;;;14.60;99.90;;;;;;5013462;28;20381;-72
2023/10/08 03:28:27;;;;;;;7.20;3.87;;;14.60;99.90;;;;;;5013110;28;20870;-73
2023/10/08 03:31:03;;;;;;;5.33;3.50;;;14.70;99.90;;;;;;5004018;28;20408;-73
2023/10/08 03:33:37;;;;;;;6.10;3.70;;;14.70;99.90;;;;;;4993813;28;20474;-74
2023/10/08 03:36:33;;;;;;;5.97;3.63;;;14.70;99.90;;;;;;4993803;28;20403;-74
2023/10/08 03:39:09;;;;;;;8.10;3.77;;;14.70;99.90;;;;;;4993673;28;20395;-73
2023/10/08 03:41:39;;;;;;;6.10;3.50;;;14.70;99.90;;;;;;5006759;28;20883;-74
2023/10/08 03:44:06;;;;;;;7.03;4.10;;;14.60;99.90;;;;;;5013414;28;20470;-74
2023/10/08 03:46:39;;;;;;;5.87;3.83;;;14.40;99.90;;;;;;5013240;28;20850;-73
2023/10/08 03:49:11;;;;;;;7.90;4.10;;;14.50;99.90;;;;;;5013418;28;20476;-74
2023/10/08 03:51:39;;;;;;;8.00;3.37;;;14.60;99.90;;;;;;4998159;28;20454;-73
2023/10/08 03:56:45;;;;;;;7.30;4.37;;;14.40;99.90;;;;;;4999412;28;20476;-72
2023/10/08 03:59:20;;;;;;;6.40;4.63;;;14.40;99.90;;;;;;4997396;28;20426;-73
2023/10/08 04:01:49;;;;;;;6.10;3.63;;;14.40;99.90;;;;;;5012801;28;20404;-74
2023/10/08 04:04:15;;;;;;;11.83;4.37;;;14.40;99.90;;;;;;5016803;28;20427;-73
2023/10/08 04:06:49;;;;;;;8.50;3.83;;;14.30;99.90;;;;;;5015317;28;20478;-74
2023/10/08 04:09:23;;;;;;;5.97;3.50;;;14.30;99.90;;;;;;5017088;28;20385;-74
2023/10/08 04:11:55;;;;;;;6.80;4.17;;;14.30;99.90;;;;;;5000305;28;20398;-73
2023/10/08 04:14:23;;;;;;;8.37;3.90;;;14.20;99.90;;;;;;4996725;28;20813;-73
2023/10/08 04:16:51;;;;;;;6.43;3.80;;;14.20;99.90;;;;;;4996922;28;20947;-73
2023/10/08 04:19:18;;;;;;;7.20;3.87;;;14.30;99.90;;;;;;4995504;28;20855;-73
2023/10/08 04:21:44;;;;;;;8.23;4.00;;;14.30;99.90;;;;;;5011718;28;20886;-73
2023/10/08 04:24:14;;;;;;;5.07;3.57;;;14.20;99.90;;;;;;5016419;28;20410;-73
2023/10/08 04:26:40;;;;;;;7.80;4.30;;;14.20;99.90;;;;;;5016313;28;20952;-74
2023/10/08 04:29:06;;;;;;;4.67;3.40;;;14.30;99.90;;;;;;5016413;28;20419;-73
2023/10/08 04:31:38;;;;;;;5.00;3.00;;;14.30;99.90;;;;;;5001085;28;20410;-74
2023/10/08 04:34:09;;;;;;;4.27;3.00;;;14.30;99.90;;;;;;4996472;28;20410;-73
2023/10/08 04:36:38;;;;;;;6.60;3.70;;;14.30;99.90;;;;;;4996328;28;20441;-73
2023/10/08 04:39:13;;;;;;;8.00;3.77;;;14.30;99.90;;;;;;4996583;28;20418;-74
2023/10/08 04:41:42;;;;;;;9.60;3.50;;;14.40;99.90;;;;;;5009182;28;20401;-73
2023/10/08 04:44:14;;;;;;;4.30;3.23;;;14.30;99.90;;;;;;5015843;28;20497;-73
2023/10/08 04:49:26;;;;;;;8.40;3.70;;;14.40;99.90;;;;;;5015803;28;20885;-74
2023/10/08 04:51:56;;;;;;;7.67;3.80;;;14.40;99.90;;;;;;4999919;28;20399;-73
2023/10/08 04:54:32;;;;;;;6.53;3.90;;;14.50;99.90;;;;;;4996002;28;20450;-73
2023/10/08 04:56:59;;;;;;;6.70;3.60;;;14.40;99.90;;;;;;4995874;28;20775;-73
2023/10/08 04:59:34;;;;;;;9.27;4.10;;;14.50;99.90;;;;;;4995906;28;20929;-73
2023/10/08 05:05:07;;;;;;;7.80;4.10;;;14.60;99.90;;;;;;5015964;28;20392;-73
2023/10/08 05:10:32;;;;;;;7.90;3.90;;;14.40;99.90;;;;;;5013478;28;20385;-73
2023/10/08 05:13:30;;;;;;;5.57;3.53;;;14.30;99.90;;;;;;4995518;28;20419;-73
2023/10/08 05:16:02;;;;;;;5.93;3.63;;;14.40;99.90;;;;;;4995219;28;20408;-73
2023/10/08 05:18:54;;;;;;;5.30;3.33;;;14.30;99.90;;;;;;4995942;28;20394;-73
2023/10/08 05:21:28;;;;;;;6.93;3.70;;;14.30;99.90;;;;;;5005594;28;20446;-73
2023/10/08 05:24:08;;;;;;;6.30;3.43;;;14.20;99.90;;;;;;5015332;28;20398;-73
2023/10/08 05:26:41;;;;;;;5.50;3.07;;;14.30;99.90;;;;;;5015209;28;20429;-74
2023/10/08 05:32:29;;;;;;;6.30;3.93;;;14.40;99.90;;;;;;4999519;28;20467;-73
2023/10/08 05:34:50;;;;;;;5.50;3.50;;;14.40;99.90;;;;;;4995166;28;20450;-73
2023/10/08 05:37:32;;;;;;;5.20;3.50;;;14.30;99.90;;;;;;4995105;28;20507;-74
2023/10/08 05:40:11;;;;;;;5.67;3.20;;;14.20;99.90;;;;;;4995756;28;20394;-73
2023/10/08 05:42:45;;;;;;;5.63;3.70;;;14.10;99.90;;;;;;4975672;28;20476;-74
2023/10/08 05:55:27;;;;;;;9.10;3.57;;;14.30;99.90;;;;;;4994602;28;20435;-74
2023/10/08 05:58:14;;;;;;;6.93;3.77;;;14.30;99.90;;;;;;4994726;28;20454;-73
2023/10/08 06:03:32;;;;;;;5.90;3.60;;;14.40;99.90;;;;;;5014575;28;20425;-74
2023/10/08 06:17:13;;;;;;;9.70;5.17;;;14.40;99.90;;;;;;4994163;28;21000;-73
2023/10/08 06:19:39;;;;;;;8.63;6.50;;;14.40;99.90;;;;;;4994411;28;20393;-74
2023/10/08 06:22:05;;;;;;;10.43;6.40;;;14.50;99.90;;;;;;5010791;28;20410;-73
2023/10/08 06:24:33;;;;;;;7.63;5.10;;;14.50;99.90;;;;;;5012732;28;20979;-73
2023/10/08 06:27:04;;;;;;;11.00;5.10;;;14.50;99.90;;;;;;5013793;28;20240;-74
2023/10/08 06:29:31;;;;;;;9.50;5.20;;;14.50;99.90;;;;;;5014027;28;20799;-73
2023/10/08 06:32:01;;;;;;;10.47;5.27;;;14.60;99.90;;;;;;4998733;28;20422;-74
2023/10/08 06:34:28;;;;;;;5.77;4.23;;;14.60;99.90;;;;;;4994097;28;20380;-73
2023/10/08 06:36:55;;;;;;;6.93;4.53;;;14.60;99.90;;;;;;4993997;28;20427;-73
2023/10/08 06:39:25;;;;;;;8.27;5.10;;;14.70;99.90;;;;;;4994268;28;20422;-73
2023/10/08 06:41:53;;;;;;;7.93;4.30;;;14.70;99.90;;;;;;5008068;28;20436;-73
2023/10/08 06:44:19;;;;;;;6.00;4.60;;;14.70;99.90;;;;;;5013670;28;20409;-74
2023/10/08 06:46:45;;;;;;;8.17;4.60;;;14.80;99.90;;;;;;5013659;28;20542;-74
2023/10/08 06:49:11;;;;;;;6.40;4.77;;;14.80;99.90;;;;;;5013977;28;20215;-73
2023/10/08 06:51:43;;;;;;;11.20;4.73;;;14.90;99.90;;;;;;5001457;28;20436;-75
2023/10/08 06:54:10;;;;;;;8.53;5.67;;;14.90;99.90;;;;;;4994108;28;20436;-74
2023/10/08 06:56:36;;;;;;;7.37;4.53;;;14.90;99.90;;;;;;4993907;28;20442;-75
2023/10/08 06:59:03;;;;;;;6.07;3.80;;;15.00;99.90;;;;;;4994062;28;20496;-74
2023/10/08 07:01:38;;;;;;;7.30;4.50;;;15.00;99.90;;;;;;5004548;28;20411;-74
2023/10/08 07:04:06;;;;;;;7.07;4.00;;;15.00;99.90;;;;;;5013661;28;20440;-75
2023/10/08 07:06:33;;;;;;;8.03;4.30;;;15.10;99.90;;;;;;5013168;28;20947;-74
2023/10/08 07:09:04;;;;;;;10.00;4.07;;;15.20;99.90;;;;;;5013460;28;20418;-74
2023/10/08 07:11:34;;;;;;;4.97;3.77;;;15.30;99.90;;;;;;5000969;28;20449;-74
2023/10/08 07:14:04;;;;;;;6.57;4.03;;;15.40;99.90;;;;;;4994201;28;20439;-74
2023/10/08 07:16:32;;;;;;;5.00;3.77;;;15.50;99.90;;;;;;4993604;28;20526;-73
2023/10/08 07:19:01;;;;;;;5.23;3.63;;;15.60;99.90;;;;;;4993577;28;20409;-73
2023/10/08 07:21:44;;;;;;;6.87;3.60;;;15.60;99.90;;;;;;5002570;28;20413;-74
2023/10/08 07:24:15;;;;;;;5.83;3.80;;;15.80;99.90;;;;;;5013477;28;20385;-74
2023/10/08 07:26:46;;;;;;;7.63;3.90;;;16.00;99.90;;;;;;5013300;28;20425;-73
2023/10/08 07:29:12;;;;;;;4.43;3.40;;;16.20;99.90;;;;;;5015289;28;20873;-74
2023/10/08 07:31:42;;;;;;;4.40;3.33;;;16.40;99.90;;;;;;5005386;28;20407;-74
2023/10/08 07:37:05;;;;;;;7.77;4.30;;;16.90;99.90;;;;;;4988938;28;20439;-74
2023/10/08 07:41:58;;;;;;;5.30;3.40;;;17.80;99.90;;;;;;5008306;28;20430;-75
2023/10/08 07:44:28;;;;;;;7.93;4.00;;;18.00;99.90;;;;;;5015935;28;20608;-75
2023/10/08 07:46:56;;;;;;;6.70;4.20;;;18.20;99.90;;;;;;5016838;28;20455;-75
2023/10/08 07:49:25;;;;;;;4.97;3.40;;;18.40;99.90;;;;;;5013587;28;20458;-75
2023/10/08 07:51:51;;;;;;;6.83;3.77;;;18.50;99.90;;;;;;5010092;28;20414;-74
2023/10/08 07:54:27;;;;;;;7.63;4.00;;;18.70;99.90;;;;;;5016784;28;20406;-75
2023/10/08 07:57:09;;;;;;;7.40;4.13;;;18.90;99.90;;;;;;5015344;28;20454;-74
2023/10/08 07:59:46;;;;;;;8.03;3.83;;;18.80;99.90;;;;;;5011377;28;20412;-74
2023/10/08 08:02:13;;;;;;;6.87;4.27;;;18.80;99.90;;;;;;5011511;28;20497;-75
2023/10/08 08:04:50;;;;;;;9.73;4.37;;;19.00;99.60;;;;;;5016684;28;20407;-75
2023/10/08 08:07:16;;;;;;;5.57;3.83;;;19.10;99.90;;;;;;5016358;28;20450;-75
2023/10/08 08:09:58;;;;;;;8.00;4.20;;;19.30;99.90;;;;;;5016683;28;20402;-75
2023/10/08 08:12:25;;;;;;;7.43;3.73;;;19.40;99.90;;;;;;4998264;28;20918;-74
2023/10/08 08:14:51;;;;;;;5.63;3.50;;;19.50;99.90;;;;;;4996962;28;20400;-74
2023/10/08 08:17:22;;;;;;;8.40;4.40;;;19.60;99.90;;;;;;4996681;28;20432;-75
2023/10/08 08:19:51;;;;;;;7.00;4.27;;;19.50;99.90;;;;;;4997088;28;20458;-75
2023/10/08 08:22:21;;;;;;;9.70;4.60;;;19.00;99.90;;;;;;5013006;28;20411;-74
2023/10/08 08:24:52;;;;;;;6.03;4.00;;;18.60;99.90;;;;;;5014909;28;20453;-75
2023/10/08 08:27:31;;;;;;;10.60;3.90;;;18.60;99.90;;;;;;5016167;28;20450;-75
2023/10/08 08:30:09;;;;;;;6.83;4.77;;;18.80;99.90;;;;;;5016022;28;20393;-74
2023/10/08 08:32:44;;;;;;;7.70;5.23;;;18.50;99.90;;;;;;4997987;28;20487;-74
2023/10/08 08:35:11;;;;;;;8.63;4.60;;;18.40;99.90;;;;;;4996899;28;20384;-75
2023/10/08 08:37:40;;;;;;;7.13;5.00;;;18.40;99.90;;;;;;4996497;28;20820;-73
2023/10/08 08:40:17;;;;;;;7.97;4.47;;;18.40;99.90;;;;;;4996147;28;20412;-74
2023/10/08 08:42:47;;;;;;;5.73;4.30;;;18.40;99.90;;;;;;5016035;28;20401;-74
2023/10/08 08:45:18;;;;;;;8.10;4.63;;;18.50;99.90;;;;;;5016223;28;20897;-74
2023/10/08 08:47:44;;;;;;;6.80;4.63;;;18.70;99.90;;;;;;5016667;28;20446;-74
2023/10/08 08:50:11;;;;;;;8.57;4.90;;;18.90;99.90;;;;;;5017005;28;20603;-74
2023/10/08 08:52:37;;;;;;;9.23;4.70;;;19.00;99.90;;;;;;4998600;28;20422;-74
2023/10/08 08:55:14;;;;;;;5.60;4.23;;;19.20;99.90;;;;;;4997299;28;20408;-75
2023/10/08 08:57:43;;;;;;;8.43;4.80;;;19.50;99.90;;;;;;4997678;28;20450;-74
2023/10/08 09:00:12;;;;;;;9.73;4.90;;;19.70;99.80;;;;;;4996406;28;20412;-74
2023/10/08 09:02:38;;;;;;;6.20;3.90;;;19.50;99.90;;;;;;5015006;28;20407;-74
2023/10/08 09:05:13;;;;;;;6.97;4.57;;;19.80;99.80;;;;;;5016753;28;20778;-74
2023/10/08 09:07:58;;;;;;;5.13;3.50;;;20.10;99.40;;;;;;5017905;28;20490;-74
2023/10/08 09:10:28;;;;;;;5.87;4.10;;;20.50;98.10;;;;;;5016794;28;20602;-74
2023/10/08 09:12:59;;;;;;;9.07;4.17;;;20.70;97.70;;;;;;4997635;28;20387;-74
2023/10/08 09:15:26;;;;;;;5.30;4.20;;;20.80;98.10;;;;;;4996480;28;20386;-74
2023/10/08 09:17:53;;;;;;;6.27;4.10;;;20.90;98.70;;;;;;4995636;28;20427;-73
2023/10/08 09:20:20;;;;;;;7.47;3.60;;;21.00;98.00;;;;;;4995692;28;20487;-74
2023/10/08 09:22:47;;;;;;;6.23;4.07;;;21.10;97.20;;;;;;5015041;28;20541;-74
2023/10/08 09:25:22;;;;;;;8.23;4.40;;;21.40;96.80;;;;;;5015379;28;20411;-74
2023/10/08 09:27:55;;;;;;;5.93;3.43;;;21.70;96.10;;;;;;5013941;28;20454;-73
2023/10/08 09:30:21;;;;;;;5.77;3.50;;;21.70;96.00;;;;;;5013934;28;20422;-73
2023/10/08 09:32:49;;;;;;;7.10;4.30;;;21.90;95.00;;;;;;4995873;28;20412;-74
2023/10/08 09:35:15;;;;;;;4.03;3.30;;;22.40;94.20;;;;;;4995669;28;20199;-73
2023/10/08 09:37:42;;;;;;;6.27;3.77;;;22.50;94.30;;;;;;4995218;28;20443;-75
2023/10/08 09:40:11;;;;;;;4.67;3.80;;;22.80;93.40;;;;;;4995575;28;20953;-75
2023/10/08 09:42:39;;;;;;;4.90;3.50;;;22.70;93.50;;;;;;5013591;28;20498;-73
2023/10/08 09:45:08;;;;;;;5.70;3.70;;;23.10;93.60;;;;;;5014869;28;20486;-74
2023/10/08 09:47:37;;;;;;;6.43;4.03;;;23.40;93.90;;;;;;5015386;28;20443;-73
2023/10/08 09:50:07;;;;;;;5.77;3.97;;;23.80;93.90;;;;;;5007977;28;20945;-74
2023/10/08 09:53:06;;;;;;;5.13;3.43;;;24.10;93.00;;;;;;5012594;28;20407;-73
2023/10/08 09:55:32;;;;;;;5.83;3.80;;;24.10;93.90;;;;;;5014891;28;20390;-73
2023/10/08 09:57:57;;;;;;;8.87;3.90;;;24.30;92.70;;;;;;5014495;28;20521;-73
2023/10/08 10:00:31;;;;;;;6.43;3.90;;;24.50;92.20;;;;;;5014781;28;20175;-73
2023/10/08 10:03:01;;;;;;;6.30;3.90;;;24.60;91.30;;;;;;4978097;28;20146;-73
2023/10/08 10:05:30;;;;;;;5.90;3.70;;;24.40;91.10;;;;;;4975614;28;20417;-74
2023/10/08 10:07:56;;;;;;;7.43;4.30;;;24.10;90.80;;;;;;4975449;28;20448;-74
2023/10/08 10:10:38;;;;;;;7.60;3.80;;;24.10;90.40;;;;;;4975852;28;20432;-74
2023/10/08 10:13:11;;;;;;;6.70;3.90;;;24.30;90.30;;;;;;5071703;28;20561;-74
2023/10/08 10:15:41;;;;;;;9.23;3.63;;;24.40;90.90;;;;;;5071399;28;20409;-75
2023/10/08 10:18:31;;;;;;;5.23;3.77;;;24.50;90.80;;;;;;5070817;28;20873;-75
2023/10/08 10:21:12;;;;;;;6.93;4.00;;;23.80;91.00;;;;;;5070614;28;20396;-75
2023/10/08 10:23:42;;;;;;;7.33;3.93;;;24.00;91.40;;;;;;5070550;28;20388;-75
2023/10/08 10:26:23;;;;;;;7.47;3.93;;;23.90;90.20;;;;;;5070439;28;20451;-75
2023/10/08 10:29:07;;;;;;;11.50;4.07;;;23.90;90.90;;;;;;5070333;28;20404;-75
2023/10/08 10:31:36;;;;;;;7.70;3.80;;;24.00;90.80;;;;;;5068977;28;20538;-75
2023/10/08 10:34:08;;;;;;;8.13;3.10;;;24.20;90.50;;;;;;5070173;28;20408;-74
2023/10/08 10:36:35;;;;;;;5.57;4.10;;;24.40;90.10;;;;;;5070140;28;20511;-75
2023/10/08 10:39:15;;;;;;;8.10;4.20;;;24.60;90.60;;;;;;5070447;28;20764;-75
2023/10/08 10:41:42;;;;;;;7.83;4.43;;;24.50;90.30;;;;;;5070040;28;20393;-75
2023/10/08 10:44:08;;;;;;;8.07;3.97;;;24.10;91.40;;;;;;5070223;28;20411;-75
2023/10/08 10:46:41;;;;;;;5.83;3.97;;;23.90;90.40;;;;;;5070644;28;20428;-75
2023/10/08 10:49:23;;;;;;;7.23;4.37;;;23.80;90.30;;;;;;5070656;28;20381;-75
2023/10/08 10:51:57;;;;;;;6.87;4.07;;;23.80;90.70;;;;;;5069766;28;20444;-75
2023/10/08 10:54:26;;;;;;;5.90;3.87;;;24.40;90.50;;;;;;5068650;28;20441;-75
2023/10/08 10:57:05;;;;;;;6.43;4.20;;;24.60;90.40;;;;;;5069728;28;20451;-75
2023/10/08 10:59:37;;;;;;;9.30;4.33;;;24.40;90.30;;;;;;5065978;28;20436;-76
2023/10/08 11:02:07;;;;;;;7.23;4.43;;;25.00;90.10;;;;;;5069760;28;20411;-75
2023/10/08 11:04:45;;;;;;;7.00;4.53;;;25.40;89.70;;;;;;5069780;28;20397;-75
2023/10/08 11:07:12;;;;;;;6.57;4.83;;;25.20;89.30;;;;;;5069777;28;20934;-75
2023/10/08 11:09:38;;;;;;;7.73;4.40;;;25.20;89.20;;;;;;5069568;28;20401;-75
2023/10/08 11:12:13;;;;;;;6.67;4.57;;;25.60;87.80;;;;;;5069296;28;20543;-75
2023/10/08 11:14:42;;;;;;;9.33;4.80;;;25.90;87.30;;;;;;5069380;28;20446;-74
2023/10/08 11:17:22;;;;;;;10.40;5.63;;;25.70;86.00;;;;;;5069590;28;20428;-75
2023/10/08 11:19:48;;;;;;;5.40;4.03;;;26.00;86.70;;;;;;5069167;28;20449;-75
2023/10/08 11:22:18;;;;;;;8.50;4.90;;;25.80;86.30;;;;;;5069229;28;20413;-74
2023/10/08 11:24:48;;;;;;;6.90;4.67;;;25.60;87.70;;;;;;5055718;28;20323;-75
2023/10/08 11:27:35;;;;;;;7.67;4.40;;;25.60;87.80;;;;;;5056041;28;20432;-75
2023/10/08 11:30:01;;;;;;;6.63;4.00;;;26.10;89.80;;;;;;5056244;28;20405;-74
2023/10/08 11:32:27;;;;;;;5.30;4.47;;;27.40;84.80;;;;;;5055742;28;20452;-75
2023/10/08 11:34:59;;;;;;;11.53;5.30;;;28.40;83.60;;;;;;5055641;28;20174;-71
2023/10/08 11:37:35;;;;;;;5.90;3.73;;;29.00;81.40;;;;;;5055637;28;20510;-71
2023/10/08 11:40:17;;;;;;;4.80;4.10;;;29.00;77.30;;;;;;5055761;28;20523;-70
2023/10/08 11:42:43;;;;;;;8.47;4.00;;;30.00;74.10;;;;;;5055837;28;20868;-70
2023/10/08 11:45:23;;;;;;;8.00;4.40;;;31.10;70.60;;;;;;5054169;28;20425;-69
2023/10/08 11:47:55;;;;;;;10.30;5.23;;;31.60;67.10;;;;;;5056677;28;20444;-71
2023/10/08 11:50:30;;;;;;;6.43;3.87;;;31.90;64.00;;;;;;5055717;28;20838;-68
2023/10/08 11:53:01;;;;;;;6.80;4.37;;;31.50;64.40;;;;;;5055730;28;20437;-68
2023/10/08 11:55:27;;;;;;;8.33;4.47;;;29.90;65.70;;;;;;5055290;28;20396;-69
2023/10/08 11:57:53;;;;;;;7.63;4.93;;;29.20;69.20;;;;;;5055195;28;20428;-71
2023/10/08 12:00:18;;;;;;;6.27;4.57;;;31.10;68.70;;;;;;5055519;28;20178;-70
2023/10/08 12:02:46;;;;;;;4.93;4.17;;;32.20;64.20;;;;;;5055086;28;20504;-72
2023/10/08 12:05:18;;;;;;;8.30;4.77;;;32.50;61.80;;;;;;5055104;28;20166;-71
2023/10/08 12:07:47;;;;;;;9.70;4.90;;;33.50;59.00;;;;;;5054975;28;20425;-72
2023/10/08 12:10:21;;;;;;;7.27;3.70;;;33.80;57.90;;;;;;5054921;28;20417;-73
2023/10/08 12:12:52;;;;;;;11.20;4.90;;;35.30;54.50;;;;;;5054758;28;20836;-72
2023/10/08 12:15:34;;;;;;;7.63;4.47;;;36.60;51.30;;;;;;5055069;28;20439;-71
2023/10/08 12:18:11;;;;;;;9.60;3.67;;;35.10;51.50;;;;;;5054947;28;20429;-69
2023/10/08 12:20:38;;;;;;;6.90;4.60;;;36.10;50.40;;;;;;5054920;28;20393;-69
2023/10/08 12:23:10;;;;;;;7.33;4.47;;;35.90;48.70;;;;;;5054600;28;20471;-72
2023/10/08 12:25:37;;;;;;;6.13;4.40;;;35.90;48.00;;;;;;5054903;28;20412;-69
2023/10/08 12:28:04;;;;;;;7.90;4.50;;;35.70;48.20;;;;;;5054417;28;20790;-71
2023/10/08 12:30:41;;;;;;;10.10;4.70;;;36.70;47.10;;;;;;5053165;28;20413;-70
2023/10/08 12:33:07;;;;;;;7.00;4.70;;;34.80;48.10;;;;;;5054539;28;20436;-72
2023/10/08 12:35:33;;;;;;;10.83;4.47;;;34.70;49.20;;;;;;5052067;28;20432;-73
2023/10/08 12:37:58;;;;;;;8.53;4.60;;;35.30;47.70;;;;;;5054397;28;20421;-69
2023/10/08 12:40:24;;;;;;;10.03;4.80;;;36.50;47.10;;;;;;5054351;28;20689;-72
2023/10/08 12:42:53;;;;;;;7.90;4.30;;;37.40;44.60;;;;;;5054848;28;20644;-71
2023/10/08 12:45:21;;;;;;;6.63;3.93;;;37.20;43.80;;;;;;5054410;28;20179;-70
2023/10/08 12:47:51;;;;;;;7.00;5.23;;;36.00;45.50;;;;;;5054872;28;20429;-71
2023/10/08 12:50:23;;;;;;;8.30;4.60;;;36.60;45.60;;;;;;5053995;28;20492;-71
2023/10/08 12:52:55;;;;;;;7.60;4.70;;;37.20;43.80;;;;;;5054316;28;21017;-70
2023/10/08 12:55:24;;;;;;;9.30;4.10;;;38.00;43.10;;;;;;5054355;28;20384;-71
2023/10/08 12:57:55;;;;;;;8.30;5.43;;;37.90;44.20;;;;;;5053959;28;20915;-71
2023/10/08 13:00:23;;;;;;;10.80;4.50;;;37.70;43.30;;;;;;5054050;28;20754;-71
2023/10/08 13:02:53;;;;;;;8.53;5.00;;;38.00;44.30;;;;;;5053913;28;20456;-71
2023/10/08 13:05:26;;;;;;;9.20;4.27;;;37.80;42.00;;;;;;5053844;28;20410;-71
2023/10/08 13:07:54;;;;;;;9.13;4.50;;;38.20;43.40;;;;;;5053827;28;20796;-74
2023/10/08 13:10:21;;;;;;;12.17;5.37;;;37.90;41.50;;;;;;5053714;28;20463;-73
2023/10/08 13:12:47;;;;;;;8.10;4.77;;;38.30;41.50;;;;;;5053513;28;20555;-74
2023/10/08 13:15:13;;;;;;;11.37;5.00;;;37.70;39.60;;;;;;5053586;28;20393;-71
2023/10/08 13:17:42;;;;;;;12.43;5.73;;;37.70;39.00;;;;;;5053615;28;20949;-72
2023/10/08 13:20:11;;;;;;;10.17;4.50;;;38.00;40.50;;;;;;5053681;28;20537;-73
2023/10/08 13:22:40;;;;;;;12.77;4.30;;;38.80;39.00;;;;;;5053552;28;20459;-73
2023/10/08 13:25:06;;;;;;;11.93;4.30;;;36.90;39.20;;;;;;5053696;28;20539;-72
2023/10/08 13:27:32;;;;;;;10.40;4.77;;;35.80;40.00;;;;;;5053457;28;20812;-72
2023/10/08 13:29:58;;;;;;;12.33;4.63;;;35.60;39.90;;;;;;5053323;28;20412;-72
2023/10/08 13:32:24;;;;;;;10.53;4.77;;;35.00;41.40;;;;;;5053305;28;20942;-72
2023/10/08 13:34:50;;;;;;;16.87;5.40;;;34.30;41.40;;;;;;5052065;28;20175;-72
2023/10/08 13:37:15;;;;;;;11.57;4.90;;;34.30;41.70;;;;;;5051500;28;20191;-73
2023/10/08 13:39:41;;;;;;;13.97;5.57;;;34.00;41.20;;;;;;5052038;28;20174;-73
2023/10/08 13:42:07;;;;;;;14.17;4.63;;;33.70;41.90;;;;;;5038095;28;20661;-72
2023/10/08 13:44:35;;;;;;;11.07;4.40;;;33.10;42.70;;;;;;5048570;28;20416;-72
2023/10/08 13:47:05;;;;;;;9.60;4.30;;;34.10;42.40;;;;;;5052317;28;20566;-72
2023/10/08 13:49:32;;;;;;;8.77;4.90;;;33.10;43.10;;;;;;5053620;28;20393;-72